sensor_id;sensor_type;location;lat;lon;timestamp;pressure;altitude;pressure_sealevel;temperature;humidity
57606;BME280;43430;48.204;11.556;2023-07-29T00:01:43;95915.28;;;16.24;100.00
57606;BME280;43430;48.204;11.556;2023-07-29T00:04:09;95909.16;;;16.23;100.00
57606;BME280;43430;48.204;11.556;2023-07-29T00:06:35;95907.81;;;16.21;100.00
57606;BME280;43430;48.204;11.556;2023-07-29T00:09:01;95911.03;;;16.18;100.00
57606;BME280;43430;48.204;11.556;2023-07-29T00:11:27;95907.00;;;16.15;100.00
57606;BME280;43430;48.204;11.556;2023-07-29T00:13:55;95916.06;;;16.14;100.00
57606;BME280;43430;48.204;11.556;2023-07-29T00:16:21;95910.41;;;16.00;100.00
57606;BME280;43430;48.204;11.556;2023-07-29T00:18:50;95915.13;;;15.93;100.00
57606;BME280;43430;48.204;11.556;2023-07-29T00:21:15;95916.22;;;15.97;100.00
57606;BME280;43430;48.204;11.556;2023-07-29T00:23:41;95919.91;;;15.96;100.00
57606;BME280;43430;48.204;11.556;2023-07-29T00:26:06;95905.81;;;15.90;100.00
57606;BME280;43430;48.204;11.556;2023-07-29T00:28:31;95915.13;;;15.93;100.00
57606;BME280;43430;48.204;11.556;2023-07-29T00:30:57;95908.19;;;15.92;100.00
57606;BME280;43430;48.204;11.556;2023-07-29T00:33:22;95902.88;;;15.92;100.00
57606;BME280;43430;48.204;11.556;2023-07-29T00:35:48;95890.13;;;15.94;100.00
57606;BME280;43430;48.204;11.556;2023-07-29T00:38:13;95890.94;;;15.95;100.00
57606;BME280;43430;48.204;11.556;2023-07-29T00:40:39;95894.41;;;15.95;100.00
57606;BME280;43430;48.204;11.556;2023-07-29T00:43:04;95891.97;;;15.88;100.00
57606;BME280;43430;48.204;11.556;2023-07-29T00:45:31;95898.28;;;15.82;100.00
57606;BME280;43430;48.204;11.556;2023-07-29T00:47:57;95903.38;;;15.84;100.00
57606;BME280;43430;48.204;11.556;2023-07-29T00:50:23;95894.59;;;15.83;100.00
57606;BME280;43430;48.204;11.556;2023-07-29T00:52:49;95900.72;;;15.84;100.00
57606;BME280;43430;48.204;11.556;2023-07-29T00:55:15;95888.50;;;15.88;100.00
57606;BME280;43430;48.204;11.556;2023-07-29T00:57:41;95898.13;;;15.94;100.00
57606;BME280;43430;48.204;11.556;2023-07-29T01:00:08;95891.19;;;15.93;100.00
57606;BME280;43430;48.204;11.556;2023-07-29T01:02:34;95883.75;;;15.95;100.00
57606;BME280;43430;48.204;11.556;2023-07-29T01:05:00;95884.31;;;15.97;100.00
57606;BME280;43430;48.204;11.556;2023-07-29T01:07:38;95882.69;;;15.96;100.00
57606;BME280;43430;48.204;11.556;2023-07-29T01:10:12;95876.84;;;15.94;100.00
57606;BME280;43430;48.204;11.556;2023-07-29T01:13:02;95883.19;;;15.88;100.00
57606;BME280;43430;48.204;11.556;2023-07-29T01:15:42;95885.03;;;15.87;100.00
57606;BME280;43430;48.204;11.556;2023-07-29T01:18:12;95873.63;;;15.92;100.00
57606;BME280;43430;48.204;11.556;2023-07-29T01:20:42;95871.47;;;15.89;100.00
57606;BME280;43430;48.204;11.556;2023-07-29T01:23:09;95874.13;;;15.84;100.00
57606;BME280;43430;48.204;11.556;2023-07-29T01:25:34;95870.91;;;15.82;100.00
57606;BME280;43430;48.204;11.556;2023-07-29T01:27:59;95864.50;;;15.78;100.00
57606;BME280;43430;48.204;11.556;2023-07-29T01:30:38;95868.53;;;15.80;100.00
57606;BME280;43430;48.204;11.556;2023-07-29T01:33:16;95874.38;;;15.82;100.00
57606;BME280;43430;48.204;11.556;2023-07-29T01:35:47;95864.50;;;15.78;100.00
57606;BME280;43430;48.204;11.556;2023-07-29T01:38:29;95862.91;;;15.77;100.00
57606;BME280;43430;48.204;11.556;2023-07-29T01:40:58;95863.38;;;15.69;100.00
57606;BME280;43430;48.204;11.556;2023-07-29T01:43:24;95858.63;;;15.71;100.00
57606;BME280;43430;48.204;11.556;2023-07-29T01:45:51;95861.97;;;15.56;100.00
57606;BME280;43430;48.204;11.556;2023-07-29T01:48:16;95864.00;;;15.43;100.00
57606;BME280;43430;48.204;11.556;2023-07-29T01:50:42;95857.91;;;15.48;100.00
57606;BME280;43430;48.204;11.556;2023-07-29T01:53:08;95862.47;;;15.53;100.00
57606;BME280;43430;48.204;11.556;2023-07-29T01:55:33;95861.13;;;15.55;100.00
57606;BME280;43430;48.204;11.556;2023-07-29T01:57:59;95861.38;;;15.49;100.00
57606;BME280;43430;48.204;11.556;2023-07-29T02:00:24;95858.16;;;15.47;100.00
57606;BME280;43430;48.204;11.556;2023-07-29T02:02:49;95856.03;;;15.43;100.00
57606;BME280;43430;48.204;11.556;2023-07-29T02:05:15;95850.13;;;15.36;100.00
57606;BME280;43430;48.204;11.556;2023-07-29T02:07:40;95850.91;;;15.37;100.00
57606;BME280;43430;48.204;11.556;2023-07-29T02:10:06;95855.72;;;15.40;100.00
57606;BME280;43430;48.204;11.556;2023-07-29T02:12:32;95852.56;;;15.43;100.00
57606;BME280;43430;48.204;11.556;2023-07-29T02:14:58;95849.34;;;15.36;100.00
57606;BME280;43430;48.204;11.556;2023-07-29T02:17:23;95846.31;;;15.27;100.00
57606;BME280;43430;48.204;11.556;2023-07-29T02:19:48;95847.91;;;15.23;100.00
57606;BME280;43430;48.204;11.556;2023-07-29T02:22:15;95839.91;;;15.18;100.00
57606;BME280;43430;48.204;11.556;2023-07-29T02:24:41;95843.66;;;15.22;100.00
57606;BME280;43430;48.204;11.556;2023-07-29T02:27:06;95857.69;;;15.17;100.00
57606;BME280;43430;48.204;11.556;2023-07-29T02:29:32;95857.91;;;15.11;100.00
57606;BME280;43430;48.204;11.556;2023-07-29T02:31:58;95855.16;;;15.01;100.00
57606;BME280;43430;48.204;11.556;2023-07-29T02:34:23;95849.09;;;15.05;100.00
57606;BME280;43430;48.204;11.556;2023-07-29T02:36:49;95863.66;;;15.03;100.00
57606;BME280;43430;48.204;11.556;2023-07-29T02:39:14;95861.81;;;15.03;100.00
57606;BME280;43430;48.204;11.556;2023-07-29T02:41:39;95863.94;;;15.06;100.00
57606;BME280;43430;48.204;11.556;2023-07-29T02:44:05;95866.06;;;15.04;100.00
57606;BME280;43430;48.204;11.556;2023-07-29T02:46:30;95872.31;;;14.93;100.00
57606;BME280;43430;48.204;11.556;2023-07-29T02:48:56;95866.19;;;14.87;100.00
57606;BME280;43430;48.204;11.556;2023-07-29T02:51:21;95865.94;;;14.89;100.00
57606;BME280;43430;48.204;11.556;2023-07-29T02:53:47;95861.28;;;15.01;100.00
57606;BME280;43430;48.204;11.556;2023-07-29T02:56:12;95866.31;;;15.03;100.00
57606;BME280;43430;48.204;11.556;2023-07-29T02:58:37;95861.78;;;14.98;100.00
57606;BME280;43430;48.204;11.556;2023-07-29T03:01:04;95865.19;;;14.93;100.00
57606;BME280;43430;48.204;11.556;2023-07-29T03:03:30;95862.28;;;14.95;100.00
57606;BME280;43430;48.204;11.556;2023-07-29T03:06:07;95854.03;;;14.96;100.00
57606;BME280;43430;48.204;11.556;2023-07-29T03:08:33;95846.34;;;14.95;100.00
57606;BME280;43430;48.204;11.556;2023-07-29T03:11:04;95846.59;;;14.93;100.00
57606;BME280;43430;48.204;11.556;2023-07-29T03:13:29;95851.66;;;14.95;100.00
57606;BME280;43430;48.204;11.556;2023-07-29T03:16:04;95844.75;;;14.94;100.00
57606;BME280;43430;48.204;11.556;2023-07-29T03:18:30;95841.03;;;14.95;100.00
57606;BME280;43430;48.204;11.556;2023-07-29T03:20:55;95845.19;;;14.86;100.00
57606;BME280;43430;48.204;11.556;2023-07-29T03:23:21;95849.47;;;14.87;100.00
57606;BME280;43430;48.204;11.556;2023-07-29T03:25:48;95845.25;;;14.91;100.00
57606;BME280;43430;48.204;11.556;2023-07-29T03:28:14;95847.94;;;14.96;100.00
57606;BME280;43430;48.204;11.556;2023-07-29T03:30:40;95845.06;;;15.03;100.00
57606;BME280;43430;48.204;11.556;2023-07-29T03:33:05;95847.31;;;15.16;100.00
57606;BME280;43430;48.204;11.556;2023-07-29T03:35:30;95826.94;;;15.27;100.00
57606;BME280;43430;48.204;11.556;2023-07-29T03:37:56;95834.53;;;15.45;100.00
57606;BME280;43430;48.204;11.556;2023-07-29T03:40:21;95844.09;;;15.51;100.00
57606;BME280;43430;48.204;11.556;2023-07-29T03:42:46;95835.69;;;15.59;100.00
57606;BME280;43430;48.204;11.556;2023-07-29T03:45:12;95843.19;;;15.68;100.00
57606;BME280;43430;48.204;11.556;2023-07-29T03:47:37;95840.03;;;15.76;100.00
57606;BME280;43430;48.204;11.556;2023-07-29T03:50:03;95835.81;;;15.80;100.00
57606;BME280;43430;48.204;11.556;2023-07-29T03:52:28;95841.16;;;15.85;100.00
57606;BME280;43430;48.204;11.556;2023-07-29T03:54:53;95831.34;;;15.90;100.00
57606;BME280;43430;48.204;11.556;2023-07-29T03:57:19;95823.16;;;16.02;100.00
57606;BME280;43430;48.204;11.556;2023-07-29T03:59:44;95811.72;;;16.02;100.00
57606;BME280;43430;48.204;11.556;2023-07-29T04:02:09;95808.00;;;16.03;100.00
57606;BME280;43430;48.204;11.556;2023-07-29T04:04:35;95802.44;;;16.09;100.00
57606;BME280;43430;48.204;11.556;2023-07-29T04:07:00;95787.03;;;16.17;100.00
57606;BME280;43430;48.204;11.556;2023-07-29T04:09:26;95774.28;;;16.24;100.00
57606;BME280;43430;48.204;11.556;2023-07-29T04:11:51;95767.91;;;16.25;100.00
57606;BME280;43430;48.204;11.556;2023-07-29T04:14:16;95767.91;;;16.25;100.00
57606;BME280;43430;48.204;11.556;2023-07-29T04:16:42;95762.59;;;16.25;100.00
57606;BME280;43430;48.204;11.556;2023-07-29T04:19:07;95751.44;;;16.33;100.00
57606;BME280;43430;48.204;11.556;2023-07-29T04:21:33;95745.03;;;16.34;100.00
57606;BME280;43430;48.204;11.556;2023-07-29T04:23:58;95744.25;;;16.33;100.00
57606;BME280;43430;48.204;11.556;2023-07-29T04:26:24;95736.28;;;16.38;100.00
57606;BME280;43430;48.204;11.556;2023-07-29T04:28:49;95738.41;;;16.31;100.00
57606;BME280;43430;48.204;11.556;2023-07-29T04:31:15;95738.91;;;16.33;100.00
57606;BME280;43430;48.204;11.556;2023-07-29T04:33:40;95723.75;;;16.44;100.00
57606;BME280;43430;48.204;11.556;2023-07-29T04:36:05;95727.50;;;16.43;100.00
57606;BME280;43430;48.204;11.556;2023-07-29T04:38:32;95728.03;;;16.40;100.00
57606;BME280;43430;48.204;11.556;2023-07-29T04:40:58;95729.63;;;16.36;100.00
57606;BME280;43430;48.204;11.556;2023-07-29T04:43:27;95729.63;;;16.36;100.00
57606;BME280;43430;48.204;11.556;2023-07-29T04:45:53;95731.47;;;16.35;100.00
57606;BME280;43430;48.204;11.556;2023-07-29T04:48:18;95741.38;;;16.55;100.00
57606;BME280;43430;48.204;11.556;2023-07-29T04:50:44;95733.13;;;16.98;100.00
57606;BME280;43430;48.204;11.556;2023-07-29T04:53:09;95715.28;;;17.14;100.00
57606;BME280;43430;48.204;11.556;2023-07-29T04:55:34;95705.66;;;17.28;100.00
57606;BME280;43430;48.204;11.556;2023-07-29T04:58:00;95697.59;;;17.48;100.00
57606;BME280;43430;48.204;11.556;2023-07-29T05:00:25;95682.06;;;17.66;100.00
57606;BME280;43430;48.204;11.556;2023-07-29T05:02:51;95676.66;;;17.81;100.00
57606;BME280;43430;48.204;11.556;2023-07-29T05:05:16;95675.47;;;18.08;100.00
57606;BME280;43430;48.204;11.556;2023-07-29T05:07:42;95659.13;;;18.54;100.00
57606;BME280;43430;48.204;11.556;2023-07-29T05:10:07;95646.09;;;18.81;100.00
57606;BME280;43430;48.204;11.556;2023-07-29T05:12:33;95631.19;;;18.75;100.00
57606;BME280;43430;48.204;11.556;2023-07-29T05:14:58;95630.13;;;18.71;100.00
57606;BME280;43430;48.204;11.556;2023-07-29T05:17:24;95627.34;;;18.86;100.00
57606;BME280;43430;48.204;11.556;2023-07-29T05:19:49;95629.41;;;18.94;100.00
57606;BME280;43430;48.204;11.556;2023-07-29T05:22:14;95612.00;;;18.68;100.00
57606;BME280;43430;48.204;11.556;2023-07-29T05:24:40;95624.09;;;18.60;100.00
57606;BME280;43430;48.204;11.556;2023-07-29T05:27:05;95621.72;;;18.54;100.00
57606;BME280;43430;48.204;11.556;2023-07-29T05:29:31;95632.41;;;18.54;100.00
57606;BME280;43430;48.204;11.556;2023-07-29T05:31:56;95627.50;;;18.66;100.00
57606;BME280;43430;48.204;11.556;2023-07-29T05:34:22;95627.50;;;18.66;100.00
57606;BME280;43430;48.204;11.556;2023-07-29T05:36:47;95627.84;;;18.88;100.00
57606;BME280;43430;48.204;11.556;2023-07-29T05:39:13;95632.63;;;18.91;100.00
57606;BME280;43430;48.204;11.556;2023-07-29T05:41:38;95637.03;;;18.77;100.00
57606;BME280;43430;48.204;11.556;2023-07-29T05:44:04;95641.63;;;18.71;100.00
57606;BME280;43430;48.204;11.556;2023-07-29T05:46:30;95652.66;;;18.60;100.00
57606;BME280;43430;48.204;11.556;2023-07-29T05:48:55;95655.47;;;18.44;100.00
57606;BME280;43430;48.204;11.556;2023-07-29T05:51:20;95656.50;;;18.48;100.00
57606;BME280;43430;48.204;11.556;2023-07-29T05:53:46;95658.53;;;18.27;100.00
57606;BME280;43430;48.204;11.556;2023-07-29T05:56:11;95657.75;;;18.22;100.00
57606;BME280;43430;48.204;11.556;2023-07-29T05:58:36;95665.22;;;18.20;100.00
57606;BME280;43430;48.204;11.556;2023-07-29T06:01:02;95678.63;;;18.10;100.00
57606;BME280;43430;48.204;11.556;2023-07-29T06:03:27;95708.81;;;18.05;100.00
57606;BME280;43430;48.204;11.556;2023-07-29T06:05:54;95713.66;;;17.98;100.00
57606;BME280;43430;48.204;11.556;2023-07-29T06:08:19;95678.75;;;17.94;100.00
57606;BME280;43430;48.204;11.556;2023-07-29T06:10:44;95652.59;;;17.96;100.00
57606;BME280;43430;48.204;11.556;2023-07-29T06:13:10;95683.03;;;17.85;100.00
57606;BME280;43430;48.204;11.556;2023-07-29T06:15:35;95686.84;;;17.79;100.00
57606;BME280;43430;48.204;11.556;2023-07-29T06:18:01;95689.47;;;17.84;100.00
57606;BME280;43430;48.204;11.556;2023-07-29T06:20:26;95686.78;;;17.84;100.00
57606;BME280;43430;48.204;11.556;2023-07-29T06:22:51;95683.00;;;17.95;100.00
57606;BME280;43430;48.204;11.556;2023-07-29T06:25:17;95679.47;;;18.10;100.00
57606;BME280;43430;48.204;11.556;2023-07-29T06:27:42;95691.97;;;18.15;100.00
57606;BME280;43430;48.204;11.556;2023-07-29T06:30:08;95693.72;;;18.35;100.00
57606;BME280;43430;48.204;11.556;2023-07-29T06:32:34;95690.66;;;18.52;100.00
57606;BME280;43430;48.204;11.556;2023-07-29T06:34:59;95702.28;;;18.66;100.00
57606;BME280;43430;48.204;11.556;2023-07-29T06:37:25;95689.19;;;18.64;100.00
57606;BME280;43430;48.204;11.556;2023-07-29T06:39:50;95699.31;;;18.67;100.00
57606;BME280;43430;48.204;11.556;2023-07-29T06:42:15;95698.63;;;18.57;100.00
57606;BME280;43430;48.204;11.556;2023-07-29T06:44:41;95706.78;;;18.76;100.00
57606;BME280;43430;48.204;11.556;2023-07-29T06:47:07;95713.63;;;18.87;100.00
57606;BME280;43430;48.204;11.556;2023-07-29T06:49:32;95720.09;;;18.81;100.00
57606;BME280;43430;48.204;11.556;2023-07-29T06:51:57;95742.84;;;18.68;100.00
57606;BME280;43430;48.204;11.556;2023-07-29T06:54:26;95768.09;;;18.46;100.00
57606;BME280;43430;48.204;11.556;2023-07-29T06:56:52;95780.81;;;18.20;100.00
57606;BME280;43430;48.204;11.556;2023-07-29T06:59:17;95810.78;;;17.97;100.00
57606;BME280;43430;48.204;11.556;2023-07-29T07:01:43;95816.19;;;17.66;100.00
57606;BME280;43430;48.204;11.556;2023-07-29T07:04:09;95833.56;;;17.38;100.00
57606;BME280;43430;48.204;11.556;2023-07-29T07:06:34;95826.59;;;16.96;100.00
57606;BME280;43430;48.204;11.556;2023-07-29T07:09:00;95836.13;;;16.67;100.00
57606;BME280;43430;48.204;11.556;2023-07-29T07:11:25;95854.75;;;16.56;100.00
57606;BME280;43430;48.204;11.556;2023-07-29T07:13:51;95852.34;;;16.55;100.00
57606;BME280;43430;48.204;11.556;2023-07-29T07:16:16;95870.97;;;16.55;100.00
57606;BME280;43430;48.204;11.556;2023-07-29T07:18:41;95881.38;;;16.56;100.00
57606;BME280;43430;48.204;11.556;2023-07-29T07:21:07;95895.19;;;16.58;100.00
57606;BME280;43430;48.204;11.556;2023-07-29T07:23:32;95897.09;;;16.63;100.00
57606;BME280;43430;48.204;11.556;2023-07-29T07:25:58;95903.22;;;16.69;100.00
57606;BME280;43430;48.204;11.556;2023-07-29T07:28:23;95892.91;;;16.77;100.00
57606;BME280;43430;48.204;11.556;2023-07-29T07:30:48;95894.25;;;16.80;100.00
57606;BME280;43430;48.204;11.556;2023-07-29T07:33:14;95871.06;;;16.85;100.00
57606;BME280;43430;48.204;11.556;2023-07-29T07:35:39;95865.75;;;16.85;100.00
57606;BME280;43430;48.204;11.556;2023-07-29T07:38:05;95863.34;;;16.89;100.00
57606;BME280;43430;48.204;11.556;2023-07-29T07:40:33;95868.41;;;16.85;100.00
57606;BME280;43430;48.204;11.556;2023-07-29T07:42:58;95858.03;;;16.94;100.00
57606;BME280;43430;48.204;11.556;2023-07-29T07:45:24;95854.31;;;17.05;100.00
57606;BME280;43430;48.204;11.556;2023-07-29T07:47:51;95867.13;;;17.19;100.00
57606;BME280;43430;48.204;11.556;2023-07-29T07:50:17;95855.66;;;17.28;100.00
57606;BME280;43430;48.204;11.556;2023-07-29T07:52:43;95842.59;;;17.37;100.00
57606;BME280;43430;48.204;11.556;2023-07-29T07:55:08;95839.91;;;17.47;100.00
57606;BME280;43430;48.204;11.556;2023-07-29T07:57:34;95846.84;;;17.53;100.00
57606;BME280;43430;48.204;11.556;2023-07-29T07:59:59;95843.38;;;17.58;100.00
57606;BME280;43430;48.204;11.556;2023-07-29T08:02:24;95855.91;;;17.73;100.00
57606;BME280;43430;48.204;11.556;2023-07-29T08:04:50;95851.88;;;17.75;100.00
57606;BME280;43430;48.204;11.556;2023-07-29T08:07:15;95840.16;;;17.82;100.00
57606;BME280;43430;48.204;11.556;2023-07-29T08:09:43;95835.59;;;17.97;100.00
57606;BME280;43430;48.204;11.556;2023-07-29T08:12:09;95840.06;;;18.12;100.00
57606;BME280;43430;48.204;11.556;2023-07-29T08:14:37;95828.06;;;18.15;100.00
57606;BME280;43430;48.204;11.556;2023-07-29T08:17:03;95818.16;;;18.20;100.00
57606;BME280;43430;48.204;11.556;2023-07-29T08:19:29;95816.00;;;18.22;100.00
57606;BME280;43430;48.204;11.556;2023-07-29T08:21:54;95815.13;;;18.42;100.00
57606;BME280;43430;48.204;11.556;2023-07-29T08:24:20;95818.56;;;18.48;100.00
57606;BME280;43430;48.204;11.556;2023-07-29T08:26:50;95815.09;;;18.47;100.00
57606;BME280;43430;48.204;11.556;2023-07-29T08:29:28;95807.53;;;18.60;100.00
57606;BME280;43430;48.204;11.556;2023-07-29T08:31:59;95806.25;;;18.52;100.00
57606;BME280;43430;48.204;11.556;2023-07-29T08:34:27;95807.59;;;18.49;100.00
57606;BME280;43430;48.204;11.556;2023-07-29T08:37:04;95802.16;;;18.70;100.00
57606;BME280;43430;48.204;11.556;2023-07-29T08:39:33;95801.00;;;18.86;100.00
57606;BME280;43430;48.204;11.556;2023-07-29T08:42:10;95778.56;;;18.82;100.00
57606;BME280;43430;48.204;11.556;2023-07-29T08:44:43;95775.06;;;18.87;100.00
57606;BME280;43430;48.204;11.556;2023-07-29T08:47:09;95770.22;;;18.94;100.00
57606;BME280;43430;48.204;11.556;2023-07-29T08:49:38;95782.72;;;18.98;100.00
57606;BME280;43430;48.204;11.556;2023-07-29T08:52:09;95768.25;;;19.05;100.00
57606;BME280;43430;48.204;11.556;2023-07-29T08:54:46;95771.06;;;19.18;100.00
57606;BME280;43430;48.204;11.556;2023-07-29T08:57:15;95770.50;;;19.21;100.00
57606;BME280;43430;48.204;11.556;2023-07-29T08:59:41;95769.31;;;19.33;100.00
57606;BME280;43430;48.204;11.556;2023-07-29T09:02:07;95756.63;;;19.49;100.00
57606;BME280;43430;48.204;11.556;2023-07-29T09:04:36;95760.41;;;19.42;100.00
57606;BME280;43430;48.204;11.556;2023-07-29T09:07:01;95757.06;;;19.56;100.00
57606;BME280;43430;48.204;11.556;2023-07-29T09:09:30;95747.69;;;19.58;100.00
57606;BME280;43430;48.204;11.556;2023-07-29T09:11:58;95744.13;;;19.68;100.00
57606;BME280;43430;48.204;11.556;2023-07-29T09:14:27;95733.22;;;19.59;100.00
57606;BME280;43430;48.204;11.556;2023-07-29T09:16:56;95723.72;;;19.48;100.00
57606;BME280;43430;48.204;11.556;2023-07-29T09:19:26;95713.69;;;19.64;100.00
57606;BME280;43430;48.204;11.556;2023-07-29T09:21:57;95714.66;;;19.73;100.00
57606;BME280;43430;48.204;11.556;2023-07-29T09:24:23;95724.13;;;19.84;100.00
57606;BME280;43430;48.204;11.556;2023-07-29T09:27:00;95717.22;;;20.02;100.00
57606;BME280;43430;48.204;11.556;2023-07-29T09:29:29;95708.63;;;20.05;100.00
57606;BME280;43430;48.204;11.556;2023-07-29T09:35:12;95696.53;;;20.65;100.00
57606;BME280;43430;48.204;11.556;2023-07-29T09:37:38;95664.00;;;20.71;100.00
57606;BME280;43430;48.204;11.556;2023-07-29T09:40:33;95655.34;;;20.60;100.00
57606;BME280;43430;48.204;11.556;2023-07-29T09:43:02;95645.41;;;20.61;100.00
57606;BME280;43430;48.204;11.556;2023-07-29T09:45:36;95643.41;;;20.85;100.00
57606;BME280;43430;48.204;11.556;2023-07-29T09:48:12;95635.22;;;21.09;100.00
57606;BME280;43430;48.204;11.556;2023-07-29T09:50:41;95637.50;;;21.44;100.00
57606;BME280;43430;48.204;11.556;2023-07-29T09:53:16;95626.16;;;21.74;100.00
57606;BME280;43430;48.204;11.556;2023-07-29T09:55:48;95621.34;;;21.99;100.00
57606;BME280;43430;48.204;11.556;2023-07-29T09:58:19;95623.81;;;21.95;100.00
57606;BME280;43430;48.204;11.556;2023-07-29T10:00:45;95613.75;;;22.01;100.00
57606;BME280;43430;48.204;11.556;2023-07-29T10:03:12;95612.03;;;22.19;100.00
57606;BME280;43430;48.204;11.556;2023-07-29T10:05:39;95591.09;;;22.30;100.00
57606;BME280;43430;48.204;11.556;2023-07-29T10:08:06;95588.16;;;22.40;100.00
57606;BME280;43430;48.204;11.556;2023-07-29T10:10:32;95574.09;;;22.65;100.00
57606;BME280;43430;48.204;11.556;2023-07-29T10:12:58;95570.84;;;22.77;100.00
57606;BME280;43430;48.204;11.556;2023-07-29T10:15:26;95563.81;;;22.67;100.00
57606;BME280;43430;48.204;11.556;2023-07-29T10:17:56;95561.97;;;22.77;100.00
57606;BME280;43430;48.204;11.556;2023-07-29T10:20:24;95566.25;;;22.78;100.00
57606;BME280;43430;48.204;11.556;2023-07-29T10:22:51;95554.59;;;22.91;100.00
57606;BME280;43430;48.204;11.556;2023-07-29T10:25:22;95562.31;;;23.06;100.00
57606;BME280;43430;48.204;11.556;2023-07-29T10:27:55;95554.00;;;23.34;100.00
57606;BME280;43430;48.204;11.556;2023-07-29T10:30:21;95534.56;;;23.54;100.00
57606;BME280;43430;48.204;11.556;2023-07-29T10:32:48;95531.22;;;23.66;100.00
57606;BME280;43430;48.204;11.556;2023-07-29T10:35:15;95534.84;;;23.53;100.00
57606;BME280;43430;48.204;11.556;2023-07-29T10:37:42;95527.72;;;23.57;100.00
57606;BME280;43430;48.204;11.556;2023-07-29T10:40:09;95520.66;;;23.69;100.00
57606;BME280;43430;48.204;11.556;2023-07-29T10:42:36;95524.00;;;23.92;100.00
57606;BME280;43430;48.204;11.556;2023-07-29T10:45:17;95514.31;;;23.91;100.00
57606;BME280;43430;48.204;11.556;2023-07-29T10:47:43;95503.88;;;23.90;100.00
57606;BME280;43430;48.204;11.556;2023-07-29T10:50:18;95493.41;;;24.06;100.00
57606;BME280;43430;48.204;11.556;2023-07-29T10:52:49;95507.59;;;24.32;100.00
57606;BME280;43430;48.204;11.556;2023-07-29T10:55:33;95500.00;;;24.26;100.00
57606;BME280;43430;48.204;11.556;2023-07-29T10:58:05;95512.25;;;24.06;100.00
57606;BME280;43430;48.204;11.556;2023-07-29T11:00:31;95517.81;;;23.92;100.00
57606;BME280;43430;48.204;11.556;2023-07-29T11:03:02;95529.50;;;23.61;100.00
57606;BME280;43430;48.204;11.556;2023-07-29T11:05:52;95548.00;;;23.45;100.00
57606;BME280;43430;48.204;11.556;2023-07-29T11:08:28;95558.72;;;22.88;100.00
57606;BME280;43430;48.204;11.556;2023-07-29T11:11:07;95572.47;;;22.33;100.00
57606;BME280;43430;48.204;11.556;2023-07-29T11:13:37;95558.41;;;21.91;100.00
57606;BME280;43430;48.204;11.556;2023-07-29T11:16:03;95577.63;;;21.21;100.00
57606;BME280;43430;48.204;11.556;2023-07-29T11:18:31;95570.34;;;21.21;100.00
57606;BME280;43430;48.204;11.556;2023-07-29T11:20:57;95589.22;;;21.02;100.00
57606;BME280;43430;48.204;11.556;2023-07-29T11:23:35;95580.50;;;21.10;100.00
57606;BME280;43430;48.204;11.556;2023-07-29T11:26:01;95579.00;;;21.32;100.00
57606;BME280;43430;48.204;11.556;2023-07-29T11:28:28;95564.59;;;21.42;100.00
57606;BME280;43430;48.204;11.556;2023-07-29T11:30:55;95569.00;;;21.38;100.00
57606;BME280;43430;48.204;11.556;2023-07-29T11:33:21;95568.88;;;21.43;100.00
57606;BME280;43430;48.204;11.556;2023-07-29T11:35:46;95568.69;;;21.39;100.00
57606;BME280;43430;48.204;11.556;2023-07-29T11:38:16;95557.53;;;21.46;100.00
57606;BME280;43430;48.204;11.556;2023-07-29T11:40:42;95547.16;;;21.67;100.00
57606;BME280;43430;48.204;11.556;2023-07-29T11:43:07;95549.56;;;21.68;100.00
57606;BME280;43430;48.204;11.556;2023-07-29T11:45:33;95558.59;;;21.95;100.00
57606;BME280;43430;48.204;11.556;2023-07-29T11:48:01;95544.47;;;22.03;100.00
57606;BME280;43430;48.204;11.556;2023-07-29T11:50:26;95542.22;;;22.41;100.00
57606;BME280;43430;48.204;11.556;2023-07-29T11:52:52;95549.94;;;22.74;100.00
57606;BME280;43430;48.204;11.556;2023-07-29T11:55:17;95531.91;;;22.66;100.00
57606;BME280;43430;48.204;11.556;2023-07-29T11:57:44;95517.22;;;22.72;100.00
57606;BME280;43430;48.204;11.556;2023-07-29T12:00:10;95525.00;;;22.82;100.00
57606;BME280;43430;48.204;11.556;2023-07-29T12:02:41;95519.56;;;22.65;100.00
57606;BME280;43430;48.204;11.556;2023-07-29T12:05:09;95521.31;;;22.69;100.00
57606;BME280;43430;48.204;11.556;2023-07-29T12:07:35;95514.25;;;22.82;100.00
57606;BME280;43430;48.204;11.556;2023-07-29T12:10:02;95521.03;;;23.11;100.00
57606;BME280;43430;48.204;11.556;2023-07-29T12:12:28;95513.94;;;23.24;100.00
57606;BME280;43430;48.204;11.556;2023-07-29T12:14:54;95502.38;;;23.23;100.00
57606;BME280;43430;48.204;11.556;2023-07-29T12:17:20;95510.63;;;23.27;100.00
57606;BME280;43430;48.204;11.556;2023-07-29T12:19:45;95503.53;;;23.48;100.00
57606;BME280;43430;48.204;11.556;2023-07-29T12:22:10;95503.06;;;23.98;100.00
57606;BME280;43430;48.204;11.556;2023-07-29T12:24:39;95499.56;;;23.98;100.00
57606;BME280;43430;48.204;11.556;2023-07-29T12:27:05;95500.50;;;23.67;100.00
57606;BME280;43430;48.204;11.556;2023-07-29T12:29:31;95505.56;;;23.42;100.00
57606;BME280;43430;48.204;11.556;2023-07-29T12:32:02;95509.66;;;23.40;100.00
57606;BME280;43430;48.204;11.556;2023-07-29T12:34:29;95521.19;;;23.14;100.00
57606;BME280;43430;48.204;11.556;2023-07-29T12:36:57;95522.34;;;22.91;100.00
57606;BME280;43430;48.204;11.556;2023-07-29T12:39:42;95526.69;;;22.69;100.00
57606;BME280;43430;48.204;11.556;2023-07-29T12:42:08;95544.31;;;22.53;100.00
57606;BME280;43430;48.204;11.556;2023-07-29T12:44:35;95577.47;;;21.67;100.00